Time,TemperatureF,DewpointF,PressureIn,WindDirection,WindDirectionDegrees,WindSpeedMPH,WindSpeedGustMPH,Humidity,HourlyPrecipIn,Conditions,Clouds,dailyrainin,SoftwareType,DateUTC
2013-02-28 00:08:00,48.7,40.0,30.10,WSW,244,6.0,8.0,71,0.00,,,0.00,weatherlink.com 1.10,2013-02-27 23:08:00,
2013-02-28 00:23:00,49.0,40.0,30.09,West,262,9.0,12.0,70,0.00,,,0.00,weatherlink.com 1.10,2013-02-27 23:23:00,
2013-02-28 00:38:00,49.1,39.0,30.09,WSW,256,8.0,14.0,68,0.00,,,0.00,weatherlink.com 1.10,2013-02-27 23:38:00,
2013-02-28 00:53:00,49.4,39.0,30.08,WSW,257,9.0,16.0,68,0.00,,,0.00,weatherlink.com 1.10,2013-02-27 23:53:00,
2013-02-28 01:08:00,49.3,39.0,30.08,WSW,251,8.0,14.0,69,0.00,,,0.00,weatherlink.com 1.10,2013-02-28 00:08:00,
2013-02-28 01:23:00,49.7,40.0,30.07,WSW,250,12.0,19.0,70,0.00,,,0.00,weatherlink.com 1.10,2013-02-28 00:23:00,
2013-02-28 01:39:00,50.1,40.0,30.07,West,281,8.0,17.0,68,0.00,,,0.00,weatherlink.com 1.10,2013-02-28 00:39:00,
2013-02-28 01:54:00,49.9,40.0,30.07,WSW,242,8.0,14.0,70,0.00,,,0.00,weatherlink.com 1.10,2013-02-28 00:54:00,
2013-02-28 02:09:00,50.3,42.0,30.07,West,263,11.0,19.0,73,0.00,,,0.00,weatherlink.com 1.10,2013-02-28 01:09:00,
2013-02-28 02:24:00,50.5,41.0,30.06,WNW,299,12.0,19.0,69,0.00,,,0.00,weatherlink.com 1.10,2013-02-28 01:24:00,
2013-02-28 02:39:00,50.5,40.0,30.05,WNW,283,5.0,19.0,68,0.00,,,0.00,weatherlink.com 1.10,2013-02-28 01:39:00,
2013-02-28 02:54:00,50.6,42.0,30.05,WSW,243,8.0,18.0,72,0.00,,,0.00,weatherlink.com 1.10,2013-02-28 01:54:00,
2013-02-28 03:09:00,50.5,43.0,30.03,West,263,6.0,16.0,74,0.00,,,0.00,weatherlink.com 1.10,2013-02-28 02:09:00,
2013-02-28 03:24:00,50.8,42.0,30.03,West,260,6.0,13.0,72,0.00,,,0.00,weatherlink.com 1.10,2013-02-28 02:24:00,
2013-02-28 03:39:00,50.9,43.0,30.03,West,280,12.0,14.0,74,0.00,,,0.00,weatherlink.com 1.10,2013-02-28 02:39:00,
2013-02-28 03:54:00,51.1,42.0,30.02,WSW,256,8.0,18.0,70,0.00,,,0.00,weatherlink.com 1.10,2013-02-28 02:54:00,
2013-02-28 04:09:00,51.2,42.0,30.01,WNW,292,11.0,20.0,72,0.00,,,0.00,weatherlink.com 1.10,2013-02-28 03:09:00,
2013-02-28 04:24:00,51.0,43.0,30.01,West,267,9.0,20.0,73,0.00,,,0.00,weatherlink.com 1.10,2013-02-28 03:24:00,
2013-02-28 04:39:00,51.0,42.0,30.01,WSW,241,9.0,18.0,71,0.00,,,0.00,weatherlink.com 1.10,2013-02-28 03:39:00,
2013-02-28 04:54:00,51.0,42.0,30.01,West,274,10.0,19.0,71,0.00,,,0.00,weatherlink.com 1.10,2013-02-28 03:54:00,
2013-02-28 05:09:00,51.0,42.0,30.00,West,263,10.0,20.0,70,0.00,,,0.00,weatherlink.com 1.10,2013-02-28 04:09:00,
2013-02-28 05:24:00,51.0,42.0,30.00,West,262,16.0,19.0,71,0.00,,,0.00,weatherlink.com 1.10,2013-02-28 04:24:00,
2013-02-28 05:39:00,51.0,42.0,29.99,WSW,240,8.0,18.0,72,0.00,,,0.00,weatherlink.com 1.10,2013-02-28 04:39:00,
2013-02-28 05:54:00,51.0,43.0,29.99,WSW,248,9.0,19.0,74,0.00,,,0.00,weatherlink.com 1.10,2013-02-28 04:54:00,
2013-02-28 06:09:00,51.0,43.0,29.98,WSW,240,17.0,17.0,74,0.00,,,0.00,weatherlink.com 1.10,2013-02-28 05:09:00,
2013-02-28 06:24:00,51.3,43.0,29.98,WSW,245,7.0,16.0,74,0.00,,,0.00,weatherlink.com 1.10,2013-02-28 05:24:00,
2013-02-28 06:39:00,51.3,44.0,29.98,WSW,256,14.0,20.0,76,0.00,,,0.00,weatherlink.com 1.10,2013-02-28 05:39:00,
2013-02-28 06:54:00,51.2,45.0,29.97,WSW,250,14.0,17.0,79,0.00,,,0.00,weatherlink.com 1.10,2013-02-28 05:54:00,
2013-02-28 07:09:00,51.3,45.0,29.97,WSW,245,18.0,20.0,80,0.00,,,0.00,weatherlink.com 1.10,2013-02-28 06:09:00,
2013-02-28 07:24:00,51.5,46.0,29.96,West,266,7.0,22.0,81,0.00,,,0.00,weatherlink.com 1.10,2013-02-28 06:24:00,
2013-02-28 07:39:00,51.5,46.0,29.97,West,260,19.0,21.0,81,0.00,,,0.00,weatherlink.com 1.10,2013-02-28 06:39:00,
2013-02-28 07:54:00,50.7,46.0,29.97,West,271,19.0,27.0,85,0.02,,,0.02,weatherlink.com 1.10,2013-02-28 06:54:00,
2013-02-28 08:09:00,51.0,47.0,29.97,West,268,13.0,20.0,86,0.02,,,0.02,weatherlink.com 1.10,2013-02-28 07:09:00,
2013-02-28 08:24:00,51.4,47.0,29.97,West,259,14.0,20.0,84,0.02,,,0.02,weatherlink.com 1.10,2013-02-28 07:24:00,
2013-02-28 08:39:00,51.0,47.0,29.97,West,267,12.0,19.0,86,0.05,,,0.05,weatherlink.com 1.10,2013-02-28 07:39:00,
2013-02-28 08:54:00,51.0,47.0,29.97,West,259,12.0,25.0,86,0.03,,,0.05,weatherlink.com 1.10,2013-02-28 07:54:00,
2013-02-28 09:09:00,50.8,47.0,29.97,West,264,12.0,22.0,87,0.04,,,0.06,weatherlink.com 1.10,2013-02-28 08:09:00,
2013-02-28 09:24:00,50.6,48.0,29.96,West,263,24.0,24.0,89,0.05,,,0.06,weatherlink.com 1.10,2013-02-28 08:24:00,
2013-02-28 09:40:00,50.6,48.0,29.95,WSW,253,11.0,21.0,90,0.03,,,0.08,weatherlink.com 1.10,2013-02-28 08:40:00,
2013-02-28 09:55:00,49.6,48.0,29.95,West,263,11.0,19.0,93,0.15,,,0.20,weatherlink.com 1.10,2013-02-28 08:55:00,
2013-02-28 10:10:00,49.0,48.0,29.94,WSW,247,11.0,22.0,95,0.20,,,0.25,weatherlink.com 1.10,2013-02-28 09:10:00,
2013-02-28 10:25:00,50.1,49.0,29.94,West,263,9.0,23.0,96,0.20,,,0.26,weatherlink.com 1.10,2013-02-28 09:25:00,
2013-02-28 10:39:00,51.0,50.0,29.93,West,262,14.0,18.0,96,0.18,,,0.26,weatherlink.com 1.10,2013-02-28 09:39:00,
2013-02-28 10:55:00,51.3,50.0,29.93,West,262,11.0,25.0,96,0.06,,,0.26,weatherlink.com 1.10,2013-02-28 09:55:00,
2013-02-28 11:10:00,51.4,50.0,29.92,WSW,255,18.0,22.0,96,0.01,,,0.26,weatherlink.com 1.10,2013-02-28 10:10:00,
2013-02-28 11:25:00,51.6,50.0,29.92,WNW,283,12.0,25.0,95,0.00,,,0.26,weatherlink.com 1.10,2013-02-28 10:25:00,
2013-02-28 11:40:00,51.6,50.0,29.92,West,280,8.0,26.0,95,0.00,,,0.26,weatherlink.com 1.10,2013-02-28 10:40:00,
2013-02-28 11:55:00,51.9,51.0,29.92,West,263,23.0,24.0,95,0.00,,,0.26,weatherlink.com 1.10,2013-02-28 10:55:00,
2013-02-28 12:10:00,52.0,51.0,29.91,West,268,13.0,29.0,95,0.00,,,0.26,weatherlink.com 1.10,2013-02-28 11:10:00,
2013-02-28 12:25:00,52.6,51.0,29.91,West,276,15.0,19.0,94,0.00,,,0.26,weatherlink.com 1.10,2013-02-28 11:25:00,
2013-02-28 12:40:00,53.2,50.0,29.90,WSW,238,14.0,29.0,90,0.00,,,0.26,weatherlink.com 1.10,2013-02-28 11:40:00,
2013-02-28 12:55:00,53.1,51.0,29.89,West,266,18.0,22.0,91,0.00,,,0.26,weatherlink.com 1.10,2013-02-28 11:55:00,
2013-02-28 13:10:00,52.8,50.0,29.88,West,262,16.0,24.0,91,0.01,,,0.27,weatherlink.com 1.10,2013-02-28 12:10:00,
2013-02-28 13:25:00,52.9,50.0,29.86,WSW,248,17.0,29.0,89,0.01,,,0.27,weatherlink.com 1.10,2013-02-28 12:25:00,
2013-02-28 13:40:00,53.0,50.0,29.86,West,274,21.0,28.0,90,0.01,,,0.27,weatherlink.com 1.10,2013-02-28 12:40:00,
2013-02-28 13:55:00,53.5,50.0,29.85,WNW,284,21.0,26.0,89,0.01,,,0.27,weatherlink.com 1.10,2013-02-28 12:55:00,
2013-02-28 14:10:00,54.0,51.0,29.85,West,280,15.0,25.0,88,0.00,,,0.27,weatherlink.com 1.10,2013-02-28 13:10:00,
2013-02-28 14:25:00,54.1,51.0,29.84,WNW,295,14.0,23.0,88,0.00,,,0.27,weatherlink.com 1.10,2013-02-28 13:25:00,
2013-02-28 14:40:00,53.8,50.0,29.85,WNW,295,16.0,21.0,87,0.00,,,0.27,weatherlink.com 1.10,2013-02-28 13:40:00,
2013-02-28 14:55:00,53.7,50.0,29.86,West,273,11.0,20.0,87,0.00,,,0.27,weatherlink.com 1.10,2013-02-28 13:55:00,
2013-02-28 15:10:00,53.9,50.0,29.86,West,260,8.0,21.0,86,0.00,,,0.27,weatherlink.com 1.10,2013-02-28 14:10:00,
2013-02-28 15:25:00,54.0,50.0,29.86,West,272,11.0,20.0,87,0.00,,,0.27,weatherlink.com 1.10,2013-02-28 14:25:00,
2013-02-28 15:40:00,53.9,50.0,29.85,WNW,285,12.0,23.0,86,0.00,,,0.27,weatherlink.com 1.10,2013-02-28 14:40:00,
2013-02-28 15:55:00,53.9,50.0,29.84,WSW,255,12.0,21.0,87,0.00,,,0.27,weatherlink.com 1.10,2013-02-28 14:55:00,
2013-02-28 16:10:00,53.9,50.0,29.85,West,276,9.0,22.0,86,0.00,,,0.27,weatherlink.com 1.10,2013-02-28 15:10:00,
2013-02-28 16:25:00,54.0,49.0,29.84,West,273,12.0,23.0,84,0.00,,,0.27,weatherlink.com 1.10,2013-02-28 15:25:00,
2013-02-28 16:40:00,54.0,50.0,29.84,West,266,7.0,20.0,85,0.00,,,0.27,weatherlink.com 1.10,2013-02-28 15:40:00,
2013-02-28 16:55:00,54.1,49.0,29.84,West,274,17.0,26.0,84,0.00,,,0.27,weatherlink.com 1.10,2013-02-28 15:55:00,
2013-02-28 17:10:00,54.1,50.0,29.84,WNW,288,25.0,26.0,85,0.00,,,0.27,weatherlink.com 1.10,2013-02-28 16:10:00,
2013-02-28 17:25:00,54.0,50.0,29.84,WNW,284,13.0,22.0,85,0.00,,,0.27,weatherlink.com 1.10,2013-02-28 16:25:00,
2013-02-28 17:40:00,53.9,50.0,29.84,WNW,293,10.0,24.0,86,0.00,,,0.27,weatherlink.com 1.10,2013-02-28 16:40:00,
2013-02-28 17:56:00,53.4,50.0,29.84,WNW,285,9.0,20.0,88,0.00,,,0.27,weatherlink.com 1.10,2013-02-28 16:56:00,
2013-02-28 18:11:00,52.8,49.0,29.83,West,265,14.0,20.0,86,0.00,,,0.27,weatherlink.com 1.10,2013-02-28 17:11:00,
2013-02-28 18:26:00,52.8,50.0,29.83,WNW,295,9.0,21.0,89,0.00,,,0.27,weatherlink.com 1.10,2013-02-28 17:26:00,
2013-02-28 18:41:00,53.0,50.0,29.82,West,280,7.0,17.0,89,0.01,,,0.28,weatherlink.com 1.10,2013-02-28 17:41:00,
2013-02-28 18:56:00,53.3,50.0,29.83,WNW,287,10.0,19.0,89,0.01,,,0.28,weatherlink.com 1.10,2013-02-28 17:56:00,
2013-02-28 19:11:00,53.4,50.0,29.83,WNW,298,10.0,18.0,88,0.01,,,0.28,weatherlink.com 1.10,2013-02-28 18:11:00,
2013-02-28 19:26:00,53.6,50.0,29.83,WNW,302,19.0,25.0,88,0.01,,,0.28,weatherlink.com 1.10,2013-02-28 18:26:00,
2013-02-28 19:41:00,53.4,50.0,29.84,WNW,291,11.0,21.0,88,0.00,,,0.28,weatherlink.com 1.10,2013-02-28 18:41:00,
2013-02-28 19:56:00,53.3,50.0,29.83,West,277,9.0,18.0,89,0.00,,,0.28,weatherlink.com 1.10,2013-02-28 18:56:00,
2013-02-28 20:11:00,53.6,50.0,29.83,WNW,290,13.0,21.0,88,0.00,,,0.28,weatherlink.com 1.10,2013-02-28 19:11:00,
2013-02-28 20:26:00,53.4,50.0,29.83,WNW,298,13.0,23.0,88,0.01,,,0.28,weatherlink.com 1.10,2013-02-28 19:26:00,
2013-02-28 20:41:00,52.6,50.0,29.83,WNW,282,16.0,19.0,91,0.08,,,0.35,weatherlink.com 1.10,2013-02-28 19:41:00,
2013-02-28 20:56:00,52.6,50.0,29.83,WNW,302,9.0,23.0,91,0.09,,,0.36,weatherlink.com 1.10,2013-02-28 19:56:00,
2013-02-28 21:11:00,51.9,49.0,29.84,West,277,15.0,24.0,90,0.14,,,0.42,weatherlink.com 1.10,2013-02-28 20:11:00,
2013-02-28 21:26:00,51.8,49.0,29.85,North,356,4.0,11.0,91,0.13,,,0.42,weatherlink.com 1.10,2013-02-28 20:26:00,
2013-02-28 21:41:00,49.7,47.0,29.85,SE,127,0.0,4.0,90,0.09,,,0.44,weatherlink.com 1.10,2013-02-28 20:41:00,
2013-02-28 21:56:00,49.0,47.0,29.85,WSW,243,3.0,4.0,92,0.13,,,0.50,weatherlink.com 1.10,2013-02-28 20:56:00,
2013-02-28 22:11:00,48.4,47.0,29.83,WNW,298,4.0,12.0,94,0.13,,,0.54,weatherlink.com 1.10,2013-02-28 21:11:00,
2013-02-28 22:26:00,48.5,47.0,29.84,West,272,3.0,8.0,94,0.13,,,0.54,weatherlink.com 1.10,2013-02-28 21:26:00,
2013-02-28 22:41:00,48.5,47.0,29.84,West,281,2.0,-999.0,94,-99.99,,,0.54,weatherlink.com 1.10,2013-02-28 21:41:00,
2013-02-28 22:56:00,48.4,47.0,29.84,SW,231,3.0,4.0,94,0.05,,,0.54,weatherlink.com 1.10,2013-02-28 21:56:00,
2013-02-28 23:11:00,48.1,47.0,29.84,WSW,250,3.0,4.0,95,0.00,,,0.54,weatherlink.com 1.10,2013-02-28 22:11:00,
2013-02-28 23:26:00,48.5,47.0,29.84,West,260,3.0,6.0,95,0.00,,,0.54,weatherlink.com 1.10,2013-02-28 22:26:00,
2013-02-28 23:41:00,48.0,47.0,29.84,WSW,248,3.0,5.0,95,0.00,,,0.54,weatherlink.com 1.10,2013-02-28 22:41:00,
2013-02-28 23:56:00,48.3,47.0,29.84,WSW,241,3.0,5.0,96,0.00,,,0.54,weatherlink.com 1.10,2013-02-28 22:56:00,